LEWISTON (LEW)

Elevation: 1870' · TRINITY R basin · Operator: US Bureau of Reclamation

Provisional data, subject to change.
Query executed Saturday at 0:07:57   clock

Select a sensor type for a plot of data.
Note: Reservoir Flows are daily averages.

Earlier

Date RES ELE    STORAGE    RES CHG    OUTFLOW    INFLOW    EVAP    RIV REL    SPILL    DIS PWR   
 FEET   AF   AF   CFS   CFS   CFS   CFS   CFS   CFS  
04/01/2016 1901.15 14023 45 326 353 4 316 166 110
04/02/2016 1901.02 13926 -97 325 279 3 315 165 110
04/03/2016 1900.89 13830 -96 325 281 4 315 165 110
04/04/2016 1900.94 13867 37 324 346 3 314 164 110
04/05/2016 1900.74 13720 -147 328 258 4 318 168 110
04/06/2016 1901.22 14076 -- 385 568 4 314 164 110
04/07/2016 1901.30 14135 59 326 361 5 316 166 110
04/08/2016 1901.35 14173 38 334 357 4 317 167 110
04/09/2016 1901.29 14128 -45 399 381 5 319 169 110
04/10/2016 1901.34 14165 37 336 358 3 317 167 110
04/11/2016 1901.59 14352 187 421 517 2 323 173 110
04/12/2016 1901.48 14270 -82 349 310 2 331 181 110
04/13/2016 1900.81 13771 -499 655 406 3 330 180 110
04/14/2016 1900.92 13852 81 330 373 2 320 174 76
04/15/2016 1901.01 13918 66 341 375 1 331 181 110
04/16/2016 1900.98 13896 -22 340 333 4 330 180 110
04/17/2016 1901.13 14008 112 340 401 5 330 180 110
04/18/2016 1901.51 14292 284 335 483 5 325 175 110
04/19/2016 1901.52 14300 8 341 345 0 325 175 110
04/20/2016 1901.35 14173 -127 386 326 4 324 174 110
04/21/2016 1901.34 14165 -8 606 608 6 572 422 110
04/22/2016 1901.06 13956 -209 800 697 2 488 338 110
04/23/2016 1900.97 13889 -67 702 669 1 484 334 110
04/24/2016 1901.37 14188 299 510 664 3 484 334 110
04/25/2016 1901.20 14061 -127 1057 997 4 1024 874 110
04/26/2016 1901.33 14158 97 1408 1461 4 1383 1250 110
04/27/2016 1901.32 14150 -8 1998 1998 4 1988 1866 110
04/28/2016 1901.26 14105 -- 1642 1622 3 1594 1472 41
04/29/2016 -- -- -- -- -- -- -- -- --
04/30/2016 -- -- -- -- -- -- -- -- --

Later | Latest

Warning! This data is preliminary and subject to revision.

Show LEW Map | Plot LEW Data | 1 Month LEW Data | Real-Time LEW Data | LEW Info